createdAt,value
2018-07-26T00:00:25.071Z,20.08
2018-07-26T00:02:53.547Z,20.02
2018-07-26T00:05:21.977Z,19.85
2018-07-26T00:07:50.453Z,19.99
2018-07-26T00:10:18.928Z,19.89
2018-07-26T00:12:47.499Z,19.97
2018-07-26T00:15:18.937Z,19.99
2018-07-26T00:17:47.346Z,19.79
2018-07-26T00:20:15.800Z,19.72
2018-07-26T00:22:44.252Z,19.65
2018-07-26T00:25:12.688Z,19.62
2018-07-26T00:27:41.185Z,19.67
2018-07-26T00:30:09.635Z,19.76
2018-07-26T00:32:38.118Z,19.67
2018-07-26T00:35:06.584Z,19.73
2018-07-26T00:37:35.014Z,19.70
2018-07-26T00:40:03.570Z,19.62
2018-07-26T00:42:32.034Z,19.60
2018-07-26T00:45:00.503Z,19.66
2018-07-26T00:47:29.007Z,19.62
2018-07-26T00:49:57.684Z,19.69
2018-07-26T00:52:26.126Z,19.71
2018-07-26T00:54:54.547Z,19.55
2018-07-26T00:57:23.043Z,19.51
2018-07-26T00:59:51.665Z,19.56
2018-07-26T01:02:20.352Z,19.66
2018-07-26T01:04:48.850Z,19.64
2018-07-26T01:07:17.448Z,19.55
2018-07-26T01:09:46.092Z,19.50
2018-07-26T01:12:14.543Z,19.44
2018-07-26T01:14:42.976Z,19.39
2018-07-26T01:17:11.861Z,19.39
2018-07-26T01:19:40.315Z,19.35
2018-07-26T01:22:08.807Z,19.35
2018-07-26T01:24:37.214Z,19.39
2018-07-26T01:27:05.870Z,19.33
2018-07-26T01:29:34.344Z,19.29
2018-07-26T01:32:02.796Z,19.21
2018-07-26T01:34:31.310Z,19.24
2018-07-26T01:36:59.765Z,19.31
2018-07-26T01:39:28.231Z,19.07
2018-07-26T01:41:56.686Z,19.01
2018-07-26T01:44:26.182Z,19.07
2018-07-26T01:46:54.618Z,19.01
2018-07-26T01:49:23.079Z,19.00
2018-07-26T01:51:51.485Z,19.06
2018-07-26T01:54:19.890Z,19.11
2018-07-26T01:56:49.227Z,19.15
2018-07-26T01:59:17.655Z,19.19
2018-07-26T02:01:46.285Z,19.10
2018-07-26T02:04:14.693Z,19.03
2018-07-26T02:06:43.205Z,18.82
2018-07-26T02:09:12.134Z,19.00
2018-07-26T02:11:40.824Z,19.04
2018-07-26T02:14:14.596Z,18.93
2018-07-26T02:16:43.027Z,18.82
2018-07-26T02:19:11.508Z,18.72
2018-07-26T02:21:39.962Z,18.87
2018-07-26T02:24:08.412Z,19.36
2018-07-26T02:26:36.918Z,19.41
2018-07-26T02:29:05.752Z,19.36
2018-07-26T02:31:34.204Z,19.07
2018-07-26T02:34:02.714Z,18.73
2018-07-26T02:36:31.266Z,18.22
2018-07-26T02:38:59.739Z,19.29
2018-07-26T02:41:28.381Z,18.33
2018-07-26T02:43:56.901Z,19.44
2018-07-26T02:46:25.347Z,19.63
2018-07-26T02:48:53.785Z,19.53
2018-07-26T02:51:22.455Z,19.47
2018-07-26T02:53:50.895Z,19.47
2018-07-26T02:56:19.396Z,19.52
2018-07-26T02:58:47.853Z,21.18
2018-07-26T03:01:16.299Z,21.73
2018-07-26T03:03:44.796Z,22.38
2018-07-26T03:06:13.239Z,21.36
2018-07-26T03:08:41.976Z,21.02
2018-07-26T03:11:10.452Z,22.76
2018-07-26T03:13:38.915Z,22.14
2018-07-26T03:16:07.424Z,22.19
2018-07-26T03:18:35.908Z,22.42
2018-07-26T03:21:04.815Z,22.49
2018-07-26T03:23:33.232Z,21.98
2018-07-26T03:26:02.009Z,21.96
2018-07-26T03:28:30.436Z,22.10
2018-07-26T03:30:58.929Z,21.97
2018-07-26T03:33:27.411Z,22.12
2018-07-26T03:35:55.832Z,22.00
2018-07-26T03:38:24.262Z,22.42
2018-07-26T03:40:52.660Z,21.58
2018-07-26T03:43:21.143Z,20.54
2018-07-26T03:45:49.600Z,20.31
2018-07-26T03:48:18.055Z,19.80
2018-07-26T03:50:47.352Z,19.50
2018-07-26T03:53:16.051Z,19.61
2018-07-26T03:55:45.014Z,19.61
2018-07-26T03:58:13.452Z,19.65
2018-07-26T04:00:41.895Z,19.92
2018-07-26T04:03:10.380Z,19.83
2018-07-26T04:05:39.290Z,20.01
2018-07-26T04:08:07.840Z,19.73
2018-07-26T04:10:36.256Z,19.48
2018-07-26T04:13:04.820Z,19.85
2018-07-26T04:15:33.270Z,19.81
2018-07-26T04:18:05.047Z,20.02
2018-07-26T04:20:33.883Z,19.88
2018-07-26T04:23:02.431Z,19.95
2018-07-26T04:25:31.604Z,19.94
2018-07-26T04:28:00.255Z,20.07
2018-07-26T04:30:28.704Z,20.18
2018-07-26T04:32:57.395Z,20.10
2018-07-26T04:35:25.853Z,20.09
2018-07-26T04:37:54.503Z,20.32
2018-07-26T04:40:22.934Z,20.29
2018-07-26T04:42:51.444Z,20.22
2018-07-26T04:45:19.904Z,20.38
2018-07-26T04:47:48.368Z,20.15
2018-07-26T04:50:16.823Z,20.33
2018-07-26T04:52:45.298Z,20.57
2018-07-26T04:55:13.790Z,20.69
2018-07-26T04:57:42.215Z,20.80
2018-07-26T05:00:11.276Z,20.71
2018-07-26T05:02:39.985Z,20.64
2018-07-26T05:05:08.491Z,20.65
2018-07-26T05:07:36.991Z,20.52
2018-07-26T05:10:05.812Z,20.12
2018-07-26T05:12:36.801Z,20.26
2018-07-26T05:15:06.996Z,20.45
2018-07-26T05:17:35.736Z,20.79
2018-07-26T05:20:04.387Z,20.84
2018-07-26T05:22:32.837Z,20.75
2018-07-26T05:25:01.735Z,21.31
2018-07-26T05:27:30.570Z,21.26
2018-07-26T05:29:59.760Z,21.56
2018-07-26T05:32:28.567Z,21.24
2018-07-26T05:34:57.028Z,21.32
2018-07-26T05:37:25.530Z,21.26
2018-07-26T05:39:53.952Z,21.28
2018-07-26T05:42:22.396Z,21.48
2018-07-26T05:44:50.867Z,21.61
2018-07-26T05:47:19.361Z,21.64
2018-07-26T05:49:47.807Z,21.68
2018-07-26T05:52:16.852Z,21.93
2018-07-26T05:54:45.312Z,22.25
2018-07-26T05:57:14.048Z,22.15
2018-07-26T05:59:42.739Z,21.99
2018-07-26T06:02:12.005Z,22.00
2018-07-26T06:04:40.738Z,22.00
2018-07-26T06:07:09.650Z,21.99
2018-07-26T06:09:38.120Z,22.17
2018-07-26T06:12:07.079Z,22.14
2018-07-26T06:14:35.554Z,22.01
2018-07-26T06:17:04.117Z,22.05
2018-07-26T06:19:32.542Z,22.26
2018-07-26T06:22:00.988Z,22.21
2018-07-26T06:24:29.456Z,22.25
2018-07-26T06:26:58.101Z,22.47
2018-07-26T06:29:26.595Z,22.28
2018-07-26T06:31:55.372Z,21.98
2018-07-26T06:34:23.805Z,22.14
2018-07-26T06:36:52.468Z,22.20
2018-07-26T06:39:20.917Z,22.49
2018-07-26T06:41:49.383Z,22.31
2018-07-26T06:44:17.938Z,22.46
2018-07-26T06:46:46.599Z,22.44
2018-07-26T06:49:15.088Z,22.39
2018-07-26T06:51:43.490Z,22.49
2018-07-26T06:54:11.957Z,22.78
2018-07-26T06:56:40.371Z,22.59
2018-07-26T06:59:08.815Z,22.67
2018-07-26T07:01:38.064Z,22.88
2018-07-26T07:04:06.485Z,22.96
2018-07-26T07:06:34.983Z,22.75
2018-07-26T07:09:04.651Z,22.59
2018-07-26T07:11:33.099Z,22.71
2018-07-26T07:14:01.556Z,22.87
2018-07-26T07:16:30.228Z,23.02
2018-07-26T07:18:58.896Z,23.06
2018-07-26T07:21:27.359Z,23.34
2018-07-26T07:23:55.815Z,23.34
2018-07-26T07:26:24.361Z,22.97
2018-07-26T07:28:52.801Z,23.30
2018-07-26T07:31:22.238Z,23.38
2018-07-26T07:33:50.736Z,23.46
2018-07-26T07:36:19.165Z,23.14
2018-07-26T07:38:47.623Z,22.72
2018-07-26T07:41:16.054Z,23.06
2018-07-26T07:43:44.529Z,23.06
2018-07-26T07:46:12.956Z,23.04
2018-07-26T07:48:41.390Z,23.28
2018-07-26T07:51:09.838Z,23.42
2018-07-26T07:53:38.275Z,23.24
2018-07-26T07:56:06.980Z,23.37
2018-07-26T07:58:35.434Z,23.11
2018-07-26T08:01:03.844Z,23.58
2018-07-26T08:03:32.292Z,23.34
2018-07-26T08:06:01.457Z,23.67
2018-07-26T08:08:30.720Z,23.74
2018-07-26T08:10:59.142Z,23.93
2018-07-26T08:13:27.616Z,23.72
2018-07-26T08:15:56.107Z,24.03
2018-07-26T08:18:24.564Z,24.09
2018-07-26T08:20:53.012Z,24.12
2018-07-26T08:23:21.556Z,24.35
2018-07-26T08:25:50.011Z,24.40
2018-07-26T08:28:18.459Z,24.57
2018-07-26T08:30:46.900Z,24.33
2018-07-26T08:33:15.344Z,24.61
2018-07-26T08:35:43.798Z,24.66
2018-07-26T08:38:12.307Z,24.99
2018-07-26T08:40:41.055Z,24.67
2018-07-26T08:43:09.774Z,25.23
2018-07-26T08:45:38.248Z,25.51
2018-07-26T08:48:06.940Z,25.12
2018-07-26T08:50:35.355Z,24.77
2018-07-26T08:53:03.788Z,25.06
2018-07-26T08:55:32.263Z,25.46
2018-07-26T08:58:00.711Z,25.74
2018-07-26T09:00:29.201Z,25.78
2018-07-26T09:02:57.635Z,24.73
2018-07-26T09:05:26.083Z,25.99
2018-07-26T09:07:54.539Z,26.10
2018-07-26T09:10:23.035Z,26.27
2018-07-26T09:12:51.486Z,26.21
2018-07-26T09:15:20.234Z,26.41
2018-07-26T09:17:48.685Z,26.56
2018-07-26T09:20:17.323Z,27.07
2018-07-26T09:22:45.799Z,26.75
2018-07-26T09:25:14.273Z,27.20
2018-07-26T09:27:42.690Z,27.37
2018-07-26T09:30:11.682Z,27.92
2018-07-26T09:32:40.163Z,27.89
2018-07-26T09:35:09.168Z,28.11
2018-07-26T09:37:37.603Z,28.33
2018-07-26T09:40:06.060Z,28.13
2018-07-26T09:42:34.539Z,27.88
2018-07-26T09:45:03.271Z,27.62
2018-07-26T09:47:31.965Z,28.35
2018-07-26T09:50:00.418Z,28.45
2018-07-26T09:52:28.859Z,28.86
2018-07-26T09:54:57.337Z,28.37
2018-07-26T09:57:25.798Z,28.82
2018-07-26T09:59:54.229Z,28.66
2018-07-26T10:02:22.735Z,27.45
2018-07-26T10:04:51.148Z,28.92
2018-07-26T10:07:19.645Z,28.51
2018-07-26T10:09:48.307Z,28.34
2018-07-26T10:12:16.698Z,28.93
2018-07-26T10:14:45.152Z,29.80
2018-07-26T10:17:13.612Z,29.88
2018-07-26T10:19:42.092Z,29.20
2018-07-26T10:22:10.540Z,28.73
2018-07-26T10:24:39.036Z,28.98
2018-07-26T10:27:07.569Z,28.50
2018-07-26T10:29:36.011Z,28.87
2018-07-26T10:32:04.478Z,29.32
2018-07-26T10:34:32.936Z,28.92
2018-07-26T10:37:01.607Z,29.76
2018-07-26T10:39:30.091Z,30.24
2018-07-26T10:41:58.532Z,29.97
2018-07-26T10:44:27.526Z,29.62
2018-07-26T10:46:55.932Z,30.55
2018-07-26T10:49:24.396Z,31.12
2018-07-26T10:51:52.876Z,30.92
2018-07-26T10:54:21.309Z,30.25
2018-07-26T10:56:49.726Z,30.82
2018-07-26T10:59:18.175Z,31.62
2018-07-26T11:01:46.994Z,31.53
2018-07-26T11:04:15.447Z,31.83
2018-07-26T11:06:43.865Z,32.26
2018-07-26T11:09:12.307Z,30.18
2018-07-26T11:11:40.763Z,30.66
2018-07-26T11:14:09.564Z,30.84
2018-07-26T11:16:38.300Z,30.83
2018-07-26T11:19:06.726Z,32.10
2018-07-26T11:21:35.187Z,30.17
2018-07-26T11:24:03.627Z,30.26
2018-07-26T11:26:32.131Z,29.64
2018-07-26T11:29:01.001Z,30.90
2018-07-26T11:31:29.441Z,31.66
2018-07-26T11:33:57.869Z,31.45
2018-07-26T11:36:26.331Z,31.07
2018-07-26T11:38:54.778Z,31.37
2018-07-26T11:41:23.248Z,31.77
2018-07-26T11:43:51.680Z,32.97
2018-07-26T11:46:20.134Z,32.15
2018-07-26T11:48:48.571Z,32.41
2018-07-26T11:51:17.003Z,30.85
2018-07-26T11:53:45.579Z,30.57
2018-07-26T11:56:13.990Z,29.95
2018-07-26T11:58:42.462Z,31.60
2018-07-26T12:01:10.925Z,31.60
2018-07-26T12:03:39.368Z,31.77
2018-07-26T12:06:07.892Z,31.58
2018-07-26T12:08:36.355Z,30.73
2018-07-26T12:11:04.801Z,30.99
2018-07-26T12:13:33.247Z,30.89
2018-07-26T12:16:01.703Z,30.62
2018-07-26T12:18:30.163Z,30.29
2018-07-26T12:20:58.569Z,29.86
2018-07-26T12:23:27.077Z,30.31
2018-07-26T12:25:55.560Z,29.69
2018-07-26T12:28:23.976Z,28.66
2018-07-26T12:30:52.454Z,28.30
2018-07-26T12:33:20.894Z,27.67
2018-07-26T12:35:49.333Z,27.25
2018-07-26T12:38:17.810Z,26.76
2018-07-26T12:40:46.262Z,26.00
2018-07-26T12:43:14.724Z,26.20
2018-07-26T12:45:43.159Z,25.48
2018-07-26T12:48:11.832Z,25.83
2018-07-26T12:50:40.503Z,25.38
2018-07-26T12:53:09.020Z,25.57
2018-07-26T12:55:37.436Z,25.32
2018-07-26T12:58:05.911Z,25.40
2018-07-26T13:00:34.723Z,25.46
2018-07-26T13:03:03.176Z,25.94
2018-07-26T13:05:31.832Z,26.33
2018-07-26T13:08:00.253Z,25.76
2018-07-26T13:10:28.775Z,25.94
2018-07-26T13:12:57.228Z,26.59
2018-07-26T13:15:25.652Z,27.27
2018-07-26T13:17:55.009Z,27.04
2018-07-26T13:20:23.743Z,26.41
2018-07-26T13:22:52.551Z,26.18
2018-07-26T13:25:20.953Z,26.32
2018-07-26T13:27:49.403Z,28.01
2018-07-26T13:30:17.824Z,29.00
2018-07-26T13:32:46.274Z,31.56
2018-07-26T13:35:14.703Z,31.11
2018-07-26T13:37:43.194Z,31.11
2018-07-26T13:40:11.733Z,31.02
2018-07-26T13:42:40.182Z,31.71
2018-07-26T13:45:09.452Z,33.16
2018-07-26T13:47:38.426Z,32.89
2018-07-26T13:50:07.346Z,32.58
2018-07-26T13:52:35.817Z,33.04
2018-07-26T13:55:04.547Z,33.61
2018-07-26T13:57:33.270Z,32.53
2018-07-26T14:00:01.692Z,31.96
2018-07-26T14:02:30.341Z,31.92
2018-07-26T14:04:58.785Z,31.18
2018-07-26T14:07:27.199Z,29.85
2018-07-26T14:09:55.684Z,29.16
2018-07-26T14:12:24.115Z,29.58
2018-07-26T14:14:52.849Z,28.56
2018-07-26T14:17:21.391Z,28.61
2018-07-26T14:19:49.871Z,27.53
2018-07-26T14:22:18.376Z,28.03
2018-07-26T14:24:46.751Z,28.10
2018-07-26T14:27:15.272Z,27.78
2018-07-26T14:29:43.688Z,27.35
2018-07-26T14:32:12.161Z,27.27
2018-07-26T14:34:40.558Z,27.02
2018-07-26T14:37:09.036Z,25.61
2018-07-26T14:39:37.458Z,26.56
2018-07-26T14:42:05.938Z,26.32
2018-07-26T14:44:34.417Z,26.32
2018-07-26T14:47:02.858Z,26.65
2018-07-26T14:49:31.260Z,26.80
2018-07-26T14:51:59.671Z,26.79
2018-07-26T14:54:28.113Z,26.52
2018-07-26T14:56:56.581Z,26.58
2018-07-26T14:59:25.250Z,26.77
2018-07-26T15:01:54.032Z,26.62
2018-07-26T15:04:22.477Z,26.67
2018-07-26T15:06:50.931Z,26.91
2018-07-26T15:09:19.402Z,27.08
2018-07-26T15:11:48.348Z,27.15
2018-07-26T15:14:17.345Z,27.67
2018-07-26T15:16:47.272Z,28.13
2018-07-26T15:19:15.681Z,28.01
2018-07-26T15:21:44.111Z,27.65
2018-07-26T15:24:12.566Z,27.92
2018-07-26T15:26:41.002Z,28.19
2018-07-26T15:29:09.451Z,28.24
2018-07-26T15:31:38.040Z,28.27
2018-07-26T15:34:06.532Z,28.44
2018-07-26T15:36:35.008Z,28.66
2018-07-26T15:39:03.995Z,29.90
2018-07-26T15:42:35.287Z,30.79
2018-07-26T15:45:04.089Z,30.76
2018-07-26T15:47:32.714Z,30.51
2018-07-26T15:50:01.169Z,30.68
2018-07-26T15:52:29.644Z,29.77
2018-07-26T15:54:58.080Z,31.77
2018-07-26T15:57:26.565Z,32.59
2018-07-26T15:59:55.016Z,32.81
2018-07-26T16:02:23.470Z,33.34
2018-07-26T16:04:52.005Z,32.04
2018-07-26T16:07:20.634Z,31.60
2018-07-26T16:09:49.323Z,32.20
2018-07-26T16:12:17.826Z,31.20
2018-07-26T16:14:46.213Z,29.87
2018-07-26T16:17:14.695Z,30.52
2018-07-26T16:19:43.366Z,29.86
2018-07-26T16:22:12.075Z,31.14
2018-07-26T16:24:41.229Z,31.31
2018-07-26T16:27:09.712Z,31.85
2018-07-26T16:29:38.179Z,32.00
2018-07-26T16:32:07.071Z,32.66
2018-07-26T16:34:35.605Z,34.00
2018-07-26T16:37:04.088Z,32.96
2018-07-26T16:39:32.555Z,34.43
2018-07-26T16:42:01.264Z,35.18
2018-07-26T16:44:29.754Z,33.67
2018-07-26T16:46:58.484Z,33.47
2018-07-26T16:49:26.939Z,32.70
2018-07-26T16:51:55.522Z,34.52
2018-07-26T16:54:23.963Z,37.16
2018-07-26T16:56:52.456Z,34.74
2018-07-26T16:59:21.004Z,33.46
2018-07-26T17:01:49.759Z,31.99
2018-07-26T17:04:18.412Z,32.34
2018-07-26T17:06:47.345Z,32.41
2018-07-26T17:09:15.792Z,32.46
2018-07-26T17:11:44.252Z,30.79
2018-07-26T17:14:12.684Z,29.92
2018-07-26T17:16:41.416Z,29.84
2018-07-26T17:19:09.928Z,29.92
2018-07-26T17:21:38.372Z,29.55
2018-07-26T17:24:07.209Z,29.33
2018-07-26T17:26:40.936Z,29.14
2018-07-26T17:29:09.434Z,28.52
2018-07-26T17:31:37.894Z,28.30
2018-07-26T17:34:21.310Z,28.90
2018-07-26T17:36:49.831Z,29.36
2018-07-26T17:39:18.458Z,27.96
2018-07-26T17:41:46.947Z,28.38
2018-07-26T17:44:15.455Z,28.26
2018-07-26T17:46:44.266Z,28.11
2018-07-26T17:49:12.922Z,27.94
2018-07-26T17:51:41.347Z,27.63
2018-07-26T17:54:09.769Z,27.71
2018-07-26T17:56:38.386Z,27.54
2018-07-26T17:59:07.205Z,27.70
2018-07-26T18:01:36.657Z,27.51
2018-07-26T18:04:05.141Z,27.42
2018-07-26T18:06:34.447Z,27.12
2018-07-26T18:09:03.099Z,27.13
2018-07-26T18:11:31.723Z,27.27
2018-07-26T18:14:00.432Z,27.01
2018-07-26T18:16:29.816Z,26.93
2018-07-26T18:18:58.403Z,26.67
2018-07-26T18:21:26.892Z,26.89
2018-07-26T18:23:55.916Z,26.89
2018-07-26T18:26:24.391Z,26.81
2018-07-26T18:28:52.854Z,27.07
2018-07-26T18:31:21.374Z,27.05
2018-07-26T18:33:55.986Z,27.03
2018-07-26T18:36:24.679Z,27.12
2018-07-26T18:38:53.184Z,27.12
2018-07-26T18:41:21.626Z,27.09
2018-07-26T18:43:50.231Z,26.80
2018-07-26T18:46:18.709Z,26.64
2018-07-26T18:48:47.174Z,26.95
2018-07-26T18:51:15.608Z,26.75
2018-07-26T18:53:44.077Z,26.66
2018-07-26T18:56:12.552Z,26.30
2018-07-26T18:58:41.271Z,26.52
2018-07-26T19:01:09.745Z,26.23
2018-07-26T19:03:38.159Z,26.15
2018-07-26T19:06:06.743Z,26.12
2018-07-26T19:08:35.292Z,26.38
2018-07-26T19:11:03.747Z,26.16
2018-07-26T19:13:32.289Z,25.86
2018-07-26T19:16:00.786Z,26.02
2018-07-26T19:18:29.234Z,26.04
2018-07-26T19:20:57.914Z,26.18
2018-07-26T19:23:26.351Z,25.93
2018-07-26T19:25:55.151Z,25.89
2018-07-26T19:28:23.642Z,25.66
2018-07-26T19:30:52.147Z,25.80
2018-07-26T19:33:20.642Z,25.83
2018-07-26T19:35:49.898Z,25.73
2018-07-26T19:38:18.511Z,25.68
2018-07-26T19:40:46.936Z,25.58
2018-07-26T19:43:15.481Z,25.55
2018-07-26T19:45:43.947Z,25.44
2018-07-26T19:48:12.371Z,25.47
2018-07-26T19:50:40.882Z,25.37
2018-07-26T19:53:09.492Z,25.08
2018-07-26T19:55:37.923Z,25.18
2018-07-26T19:58:06.434Z,25.19
2018-07-26T20:00:34.911Z,25.27
2018-07-26T20:03:03.334Z,25.18
2018-07-26T20:05:31.778Z,25.12
2018-07-26T20:08:00.167Z,25.22
2018-07-26T20:10:28.608Z,25.30
2018-07-26T20:12:57.112Z,24.92
2018-07-26T20:15:25.552Z,24.79
2018-07-26T20:17:54.038Z,24.92
2018-07-26T20:20:22.471Z,25.02
2018-07-26T20:22:50.881Z,25.09
2018-07-26T20:25:19.353Z,25.03
2018-07-26T20:27:48.213Z,24.95
2018-07-26T20:30:16.823Z,24.55
2018-07-26T20:32:45.440Z,24.62
2018-07-26T20:35:13.967Z,24.68
2018-07-26T20:37:42.528Z,24.65
2018-07-26T20:40:11.695Z,24.90
2018-07-26T20:42:40.478Z,24.77
2018-07-26T20:45:10.794Z,24.56
2018-07-26T20:47:39.465Z,24.45
2018-07-26T20:50:08.999Z,24.63
2018-07-26T20:52:38.036Z,24.67
2018-07-26T20:55:06.843Z,24.79
2018-07-26T20:57:35.539Z,24.79
2018-07-26T21:00:04.742Z,24.66
2018-07-26T21:02:33.421Z,24.30
2018-07-26T21:05:01.848Z,24.41
2018-07-26T21:07:30.296Z,24.40
2018-07-26T21:09:58.719Z,24.55
2018-07-26T21:12:27.228Z,24.48
2018-07-26T21:14:55.990Z,24.52
2018-07-26T21:17:24.488Z,24.22
2018-07-26T21:19:52.913Z,24.33
2018-07-26T21:22:21.316Z,24.36
2018-07-26T21:24:49.931Z,24.30
2018-07-26T21:27:18.468Z,24.43
2018-07-26T21:29:46.963Z,24.52
2018-07-26T21:32:15.356Z,24.36
2018-07-26T21:34:43.815Z,24.42
2018-07-26T21:37:12.257Z,24.35
2018-07-26T21:39:40.657Z,24.21
2018-07-26T21:42:09.173Z,24.26
2018-07-26T21:44:38.073Z,24.13
2018-07-26T21:47:06.528Z,24.02
2018-07-26T21:49:34.980Z,24.00
2018-07-26T21:52:03.440Z,23.44
2018-07-26T21:54:31.925Z,23.72
2018-07-26T21:57:00.810Z,23.97
2018-07-26T21:59:29.450Z,23.93
2018-07-26T22:01:57.906Z,23.93
2018-07-26T22:04:26.419Z,23.99
2018-07-26T22:06:55.136Z,23.82
2018-07-26T22:09:23.698Z,23.57
2018-07-26T22:11:52.134Z,23.81
2018-07-26T22:14:20.608Z,23.76
2018-07-26T22:16:49.078Z,23.73
2018-07-26T22:19:17.599Z,23.79
2018-07-26T22:21:46.299Z,23.66
2018-07-26T22:24:14.732Z,23.54
2018-07-26T22:26:43.447Z,23.55
2018-07-26T22:29:11.953Z,23.47
2018-07-26T22:31:40.404Z,22.93
2018-07-26T22:34:09.271Z,22.83
2018-07-26T22:36:37.731Z,23.05
2018-07-26T22:39:07.922Z,22.87
2018-07-26T22:41:36.320Z,22.70
2018-07-26T22:44:05.032Z,22.59
2018-07-26T22:46:33.740Z,22.80
2018-07-26T22:49:02.180Z,22.85
2018-07-26T22:51:30.703Z,22.72
2018-07-26T22:53:59.167Z,22.55
2018-07-26T22:56:27.636Z,22.58
2018-07-26T22:58:56.135Z,22.43
2018-07-26T23:01:24.716Z,22.52
2018-07-26T23:03:53.393Z,22.48
2018-07-26T23:06:21.851Z,22.67
2018-07-26T23:08:50.271Z,22.63
2018-07-26T23:11:18.778Z,22.64
2018-07-26T23:13:47.216Z,22.62
2018-07-26T23:16:15.689Z,22.61
2018-07-26T23:18:44.536Z,22.75
2018-07-26T23:21:13.003Z,22.87
2018-07-26T23:23:41.603Z,22.76
2018-07-26T23:26:10.143Z,22.70
2018-07-26T23:28:38.887Z,22.53
2018-07-26T23:31:07.483Z,22.66
2018-07-26T23:33:35.949Z,22.76
2018-07-26T23:36:04.459Z,22.86
2018-07-26T23:38:32.959Z,22.85
2018-07-26T23:41:01.412Z,22.79
2018-07-26T23:43:29.892Z,22.64
2018-07-26T23:45:58.363Z,22.89
2018-07-26T23:48:26.837Z,22.95
2018-07-26T23:50:55.684Z,22.90
2018-07-26T23:53:24.187Z,23.00
2018-07-26T23:55:52.768Z,22.95
2018-07-26T23:58:21.248Z,22.61
